Hatton, Washington
Current Conditions -  °F | °C
As of 3:52 AM on Tuesday 21 Oct 2014 (Local Time) from KMWH Reporting Station
Haze Haze  
Wind Chill: 47°   Ceiling: Unl
Heat Index: 47°   Visibility: 6mi
Dew Point: 46°   Wind: 3mph
Humidity: 97%   Direction: 160°SSE
Pressure: 29.82"   Gusts: NA
Location:  46.78°N, 118.83°W
Report Text: KMWH 211052Z 16003KT 6SM BR CLR 08/08 A2982 RMK AO2 SLP098 T00830078
Loading
Personal Weather Stations






























Interactive Weather Map
Tropical Storm Tracking
New forecast layout! Learn more

10-Day Weather Forecast

Advertisements
Track Severe Weather on mobile